Time;durP1;ratioP1;P1;durP2;ratioP2;P2;SDS_P1;SDS_P2;PMS_P1;PMS_P2;Temp;Humidity;BMP_temperature;BMP_pressure;BME280_temperature;BME280_humidity;BME280_pressure;Samples;Min_cycle;Max_cycle;Signal;HPM_P1;HPM_P2
2024/01/25 00:00:00;;;;;;;21.40;3.22;;;7.80;99.90;;;;;;5062340;28;20099;-74
2024/01/25 00:02:29;;;;;;;20.88;3.80;;;7.70;99.90;;;;;;5063414;28;20092;-72
2024/01/25 00:04:54;;;;;;;28.10;3.27;;;7.70;99.90;;;;;;5054742;28;20124;-69
2024/01/25 00:07:20;;;;;;;18.13;3.73;;;7.60;99.90;;;;;;5055148;28;20689;-72
2024/01/25 00:09:45;;;;;;;19.23;4.30;;;7.60;99.90;;;;;;5043458;28;20044;-72
2024/01/25 00:12:14;;;;;;;32.20;4.33;;;7.60;99.90;;;;;;5061593;28;20397;-75
2024/01/25 00:14:39;;;;;;;27.08;3.40;;;7.60;99.90;;;;;;5059160;28;20085;-70
2024/01/25 00:17:05;;;;;;;25.57;3.37;;;7.50;99.90;;;;;;5042203;28;20497;-70
2024/01/25 00:19:34;;;;;;;24.00;3.35;;;7.50;99.90;;;;;;5060116;28;20029;-70
2024/01/25 00:22:00;;;;;;;21.58;3.95;;;7.40;99.90;;;;;;5050856;28;20036;-76
2024/01/25 00:24:26;;;;;;;16.47;3.73;;;7.40;99.90;;;;;;5062239;28;20501;-76
2024/01/25 00:26:54;;;;;;;28.75;3.58;;;7.40;99.90;;;;;;5051604;28;20770;-71
2024/01/25 00:29:20;;;;;;;27.80;4.77;;;7.30;99.90;;;;;;5041292;28;20058;-70
2024/01/25 00:31:46;;;;;;;21.70;3.80;;;7.30;99.90;;;;;;5053418;28;20558;-70
2024/01/25 00:34:11;;;;;;;22.27;4.43;;;7.20;99.90;;;;;;5058034;28;20086;-74
2024/01/25 00:36:39;;;;;;;23.40;4.27;;;7.20;99.90;;;;;;5054215;28;20040;-75
2024/01/25 00:39:05;;;;;;;27.00;4.00;;;7.10;99.90;;;;;;5051494;28;20379;-71
2024/01/25 00:41:32;;;;;;;17.20;3.60;;;7.10;99.90;;;;;;5058618;28;20450;-71
2024/01/25 00:43:58;;;;;;;;;;;7.10;99.90;;;;;;5054732;28;20055;-73
2024/01/25 00:46:24;;;;;;;28.98;5.30;;;7.10;99.90;;;;;;5054826;28;19924;-70
2024/01/25 00:48:52;;;;;;;13.80;3.65;;;7.00;99.90;;;;;;5053504;28;20528;-78
2024/01/25 00:51:24;;;;;;;18.35;3.17;;;7.00;99.90;;;;;;5052664;28;20072;-69
2024/01/25 00:53:49;;;;;;;23.30;4.32;;;7.00;99.90;;;;;;5053491;28;20052;-69
2024/01/25 00:56:15;;;;;;;20.77;3.72;;;7.00;99.90;;;;;;5051642;28;20024;-69
2024/01/25 00:58:41;;;;;;;28.05;3.35;;;7.00;99.90;;;;;;5055461;28;20174;-68
2024/01/25 01:01:07;;;;;;;17.50;4.40;;;6.90;99.90;;;;;;5052605;28;20067;-69
2024/01/25 01:03:33;;;;;;;23.98;4.22;;;6.90;99.90;;;;;;5049402;28;20048;-70
2024/01/25 01:05:59;;;;;;;29.58;4.65;;;6.90;99.90;;;;;;5051742;28;20129;-70
2024/01/25 01:08:26;;;;;;;19.98;4.57;;;6.90;99.90;;;;;;5055624;28;20045;-69
2024/01/25 01:10:51;;;;;;;;;;;6.90;99.90;;;;;;5051009;28;20497;-70
2024/01/25 01:13:17;;;;;;;16.33;3.38;;;6.90;99.90;;;;;;5048083;28;19931;-70
2024/01/25 01:15:42;;;;;;;29.03;5.47;;;6.80;99.90;;;;;;5051824;28;21843;-70
2024/01/25 01:18:08;;;;;;;20.27;4.10;;;6.80;99.90;;;;;;5055988;28;20043;-70
2024/01/25 01:20:33;;;;;;;28.23;4.10;;;6.80;99.90;;;;;;5049053;28;20067;-69
2024/01/25 01:22:59;;;;;;;27.53;5.07;;;6.80;99.90;;;;;;5034604;28;20554;-70
2024/01/25 01:25:28;;;;;;;25.40;4.10;;;6.80;99.90;;;;;;5051630;28;20073;-70
2024/01/25 01:27:53;;;;;;;24.50;3.75;;;6.80;99.90;;;;;;5054253;28;20093;-70
2024/01/25 01:30:19;;;;;;;24.67;4.53;;;6.80;99.90;;;;;;5056220;28;20107;-70
2024/01/25 01:32:45;;;;;;;30.63;4.60;;;6.70;99.90;;;;;;5053144;28;20059;-70
2024/01/25 01:35:10;;;;;;;21.07;3.57;;;6.70;99.90;;;;;;5052417;28;20110;-70
2024/01/25 01:37:39;;;;;;;25.55;3.80;;;6.70;99.90;;;;;;5057642;28;20044;-70
2024/01/25 01:40:05;;;;;;;47.87;4.40;;;6.60;99.90;;;;;;5057944;28;20040;-70
2024/01/25 01:42:32;;;;;;;36.00;4.88;;;6.60;99.90;;;;;;5056486;28;20058;-69
2024/01/25 01:44:58;;;;;;;32.40;3.63;;;6.70;99.90;;;;;;5049783;28;20084;-70
2024/01/25 01:47:26;;;;;;;26.97;3.83;;;6.60;99.90;;;;;;5051403;28;20513;-69
2024/01/25 01:49:55;;;;;;;45.67;5.55;;;6.60;99.90;;;;;;5049590;28;20400;-70
2024/01/25 01:52:21;;;;;;;22.73;4.18;;;6.60;99.90;;;;;;5038503;28;20059;-71
2024/01/25 01:54:47;;;;;;;31.23;5.05;;;6.60;99.90;;;;;;5057099;28;20617;-70
2024/01/25 01:57:13;;;;;;;22.73;3.67;;;6.60;99.90;;;;;;5058566;28;20041;-70
2024/01/25 01:59:39;;;;;;;36.63;4.67;;;6.60;99.90;;;;;;5058442;28;20047;-70
2024/01/25 02:02:05;;;;;;;34.30;4.73;;;6.50;99.90;;;;;;5061990;28;20091;-71
2024/01/25 02:04:31;;;;;;;22.98;4.13;;;6.50;99.90;;;;;;5050452;28;21020;-70
2024/01/25 02:06:57;;;;;;;31.17;4.90;;;6.60;99.90;;;;;;5052570;28;20049;-70
2024/01/25 02:09:22;;;;;;;28.80;5.20;;;6.50;99.90;;;;;;5056858;28;20123;-70
2024/01/25 02:11:59;;;;;;;19.83;3.43;;;6.50;99.90;;;;;;5059479;28;21641;-70
2024/01/25 02:14:24;;;;;;;27.03;5.23;;;6.40;99.90;;;;;;5059627;28;20451;-70
2024/01/25 02:16:50;;;;;;;18.00;3.00;;;6.50;99.90;;;;;;5053048;28;20281;-70
2024/01/25 02:19:15;;;;;;;28.47;3.93;;;6.40;99.90;;;;;;5061257;28;20043;-70
2024/01/25 02:21:41;;;;;;;23.40;3.80;;;6.40;99.90;;;;;;5059493;28;20100;-70
2024/01/25 02:24:07;;;;;;;18.87;3.90;;;6.40;99.90;;;;;;5061268;28;20412;-69
2024/01/25 02:26:32;;;;;;;20.93;3.53;;;6.40;99.90;;;;;;5059048;28;20518;-69
2024/01/25 02:29:02;;;;;;;24.50;3.90;;;6.40;99.90;;;;;;5061389;28;20049;-70
2024/01/25 02:31:28;;;;;;;20.85;4.05;;;6.30;99.90;;;;;;5062325;28;20105;-70
2024/01/25 02:33:54;;;;;;;37.03;4.50;;;6.30;99.90;;;;;;5061449;28;20048;-70
2024/01/25 02:36:22;;;;;;;24.87;4.40;;;6.30;99.90;;;;;;5058070;28;20032;-69
2024/01/25 02:38:50;;;;;;;27.05;4.25;;;6.20;99.90;;;;;;5057195;28;20064;-69
2024/01/25 02:41:18;;;;;;;33.22;4.07;;;6.30;99.90;;;;;;5064218;28;20040;-69
2024/01/25 02:43:44;;;;;;;37.70;5.03;;;6.20;99.90;;;;;;5057198;28;20045;-69
2024/01/25 02:46:10;;;;;;;23.00;4.23;;;6.20;99.90;;;;;;5064746;28;20101;-70
2024/01/25 02:48:38;;;;;;;24.63;4.83;;;6.20;99.90;;;;;;5055279;28;20049;-69
2024/01/25 02:51:04;;;;;;;25.45;3.83;;;6.10;99.90;;;;;;5064027;28;20033;-69
2024/01/25 02:53:29;;;;;;;15.48;4.13;;;6.10;99.90;;;;;;5060581;28;20035;-70
2024/01/25 02:55:55;;;;;;;23.57;4.20;;;6.10;99.90;;;;;;5058246;28;20041;-69
2024/01/25 02:58:23;;;;;;;24.07;3.80;;;6.20;99.90;;;;;;5061367;28;20055;-70
2024/01/25 03:00:52;;;;;;;34.15;5.47;;;6.10;99.90;;;;;;5055653;28;20112;-69
2024/01/25 03:03:21;;;;;;;23.55;4.88;;;6.10;99.90;;;;;;5058573;28;20044;-70
2024/01/25 03:05:51;;;;;;;20.88;4.30;;;6.10;99.90;;;;;;5056702;28;20638;-72
2024/01/25 03:08:16;;;;;;;29.42;4.65;;;6.10;99.90;;;;;;5058375;28;20083;-69
2024/01/25 03:10:42;;;;;;;26.27;4.00;;;6.10;99.90;;;;;;5054605;28;20527;-69
2024/01/25 03:13:07;;;;;;;27.87;3.93;;;6.10;99.90;;;;;;5040337;28;20040;-70
2024/01/25 03:15:33;;;;;;;18.93;4.53;;;6.00;99.90;;;;;;5050277;28;20377;-69
2024/01/25 03:17:59;;;;;;;33.27;3.80;;;6.00;99.90;;;;;;5054371;28;20063;-69
2024/01/25 03:20:24;;;;;;;29.43;4.67;;;6.00;99.90;;;;;;5061120;28;20190;-70
2024/01/25 03:22:54;;;;;;;25.47;3.80;;;6.00;99.90;;;;;;5056795;28;20230;-69
2024/01/25 03:25:20;;;;;;;27.67;4.05;;;6.00;99.90;;;;;;5060544;28;20124;-70
2024/01/25 03:27:47;;;;;;;19.03;3.47;;;6.00;99.90;;;;;;5058077;28;20187;-70
2024/01/25 03:30:13;;;;;;;21.30;4.53;;;6.00;99.90;;;;;;5053703;28;20036;-70
2024/01/25 03:32:39;;;;;;;21.23;4.70;;;6.00;99.90;;;;;;5040456;28;20041;-70
2024/01/25 03:35:05;;;;;;;39.03;3.70;;;6.00;99.90;;;;;;5055889;28;20339;-69
2024/01/25 03:37:31;;;;;;;34.15;4.82;;;5.90;99.90;;;;;;5056708;28;20036;-70
2024/01/25 03:39:56;;;;;;;31.97;5.63;;;5.90;99.90;;;;;;5059244;28;20048;-69
2024/01/25 03:42:22;;;;;;;25.27;4.03;;;5.80;99.90;;;;;;5045929;28;20127;-69
2024/01/25 03:44:48;;;;;;;21.47;3.73;;;5.80;99.90;;;;;;5054765;28;20037;-69
2024/01/25 03:47:13;;;;;;;19.83;4.20;;;5.80;99.90;;;;;;5051063;28;20032;-70
2024/01/25 03:49:39;;;;;;;26.20;4.03;;;5.80;99.90;;;;;;5055618;28;20695;-69
2024/01/25 03:52:07;;;;;;;26.80;3.90;;;5.80;99.90;;;;;;5053695;28;20044;-70
2024/01/25 03:54:33;;;;;;;25.05;3.72;;;5.80;99.90;;;;;;5060792;28;20040;-69
2024/01/25 03:56:59;;;;;;;18.40;3.33;;;5.80;99.90;;;;;;5057616;28;20782;-70
2024/01/25 03:59:24;;;;;;;21.97;3.60;;;5.80;99.90;;;;;;5058892;28;20033;-70
2024/01/25 04:01:50;;;;;;;24.17;4.47;;;5.80;99.90;;;;;;5059260;28;20400;-70
2024/01/25 04:04:16;;;;;;;23.63;3.80;;;5.70;99.90;;;;;;5055434;28;20040;-70
2024/01/25 04:06:43;;;;;;;25.83;4.63;;;5.70;99.90;;;;;;5053592;28;20028;-69
2024/01/25 04:09:09;;;;;;;21.15;3.92;;;5.70;99.90;;;;;;5045811;28;20409;-70
2024/01/25 04:11:36;;;;;;;24.15;4.85;;;5.70;99.90;;;;;;5058439;28;20041;-69
2024/01/25 04:14:02;;;;;;;21.60;4.38;;;5.70;99.90;;;;;;5056753;28;20075;-69
2024/01/25 04:16:27;;;;;;;24.53;3.87;;;5.70;99.90;;;;;;5057936;28;20036;-69
2024/01/25 04:18:53;;;;;;;25.97;3.93;;;5.70;99.90;;;;;;5060449;28;20490;-68
2024/01/25 04:21:19;;;;;;;20.77;3.50;;;5.70;99.90;;;;;;5052122;28;20504;-70
2024/01/25 04:23:44;;;;;;;26.37;3.67;;;5.70;99.90;;;;;;5052414;28;20063;-68
2024/01/25 04:26:10;;;;;;;18.17;4.10;;;5.70;99.90;;;;;;5055408;28;20071;-68
2024/01/25 04:28:36;;;;;;;23.67;3.93;;;5.70;99.90;;;;;;5059061;28;20574;-68
2024/01/25 04:31:04;;;;;;;23.83;4.10;;;5.70;99.90;;;;;;5049449;28;20285;-69
2024/01/25 04:33:30;;;;;;;27.17;3.95;;;5.70;99.90;;;;;;5055813;28;20068;-68
2024/01/25 04:35:55;;;;;;;19.73;3.67;;;5.70;99.90;;;;;;5057524;28;20582;-68
2024/01/25 04:38:21;;;;;;;25.23;4.73;;;5.70;99.90;;;;;;5057852;28;20079;-68
2024/01/25 04:40:47;;;;;;;25.73;4.25;;;5.70;99.90;;;;;;5060558;28;20040;-71
2024/01/25 04:43:13;;;;;;;27.73;5.43;;;5.70;99.90;;;;;;5055302;28;20106;-69
2024/01/25 04:45:39;;;;;;;22.50;3.88;;;5.70;99.90;;;;;;5056344;28;20048;-69
2024/01/25 04:48:06;;;;;;;30.33;4.72;;;5.60;99.90;;;;;;5057141;28;20055;-69
2024/01/25 04:50:32;;;;;;;31.27;4.32;;;5.60;99.90;;;;;;5041987;28;20055;-70
2024/01/25 04:52:57;;;;;;;36.00;4.53;;;5.60;99.90;;;;;;5054477;28;20062;-71
2024/01/25 04:55:23;;;;;;;29.23;4.30;;;5.50;99.90;;;;;;5054643;28;20285;-68
2024/01/25 04:57:53;;;;;;;29.33;3.60;;;5.50;99.90;;;;;;5060261;28;20119;-70
2024/01/25 05:00:21;;;;;;;40.40;5.30;;;5.50;99.90;;;;;;5059977;28;20134;-71
2024/01/25 05:02:47;;;;;;;29.05;4.25;;;5.50;99.90;;;;;;5051635;28;20040;-68
2024/01/25 05:05:13;;;;;;;34.45;5.53;;;5.50;99.90;;;;;;5043504;28;20394;-68
2024/01/25 05:07:39;;;;;;;29.17;4.60;;;5.50;99.90;;;;;;5054812;28;20048;-69
2024/01/25 05:10:05;;;;;;;27.85;5.10;;;5.50;99.90;;;;;;5049387;28;20300;-69
2024/01/25 05:12:31;;;;;;;23.55;3.70;;;5.40;99.90;;;;;;5039602;28;20051;-69
2024/01/25 05:14:56;;;;;;;33.70;5.67;;;5.40;99.90;;;;;;5049198;28;20436;-69
2024/01/25 05:17:22;;;;;;;20.60;3.60;;;5.40;99.90;;;;;;5060615;28;20120;-69
2024/01/25 05:19:47;;;;;;;32.47;5.37;;;5.30;99.90;;;;;;5057066;28;20044;-70
2024/01/25 05:22:13;;;;;;;26.10;5.73;;;5.30;99.90;;;;;;5057453;28;20444;-69
2024/01/25 05:24:39;;;;;;;25.30;4.40;;;5.30;99.90;;;;;;5056318;28;20512;-69
2024/01/25 05:27:05;;;;;;;25.57;4.70;;;5.40;99.90;;;;;;5054717;28;20044;-70
2024/01/25 05:29:30;;;;;;;28.90;5.73;;;5.20;99.90;;;;;;5050356;28;20049;-70
2024/01/25 05:31:57;;;;;;;26.93;4.57;;;5.20;99.90;;;;;;5057818;28;20469;-69
2024/01/25 05:34:22;;;;;;;24.08;4.82;;;5.20;99.90;;;;;;5061515;28;20048;-70
2024/01/25 05:36:48;;;;;;;20.30;4.17;;;5.20;99.90;;;;;;5037388;28;20041;-69
2024/01/25 05:39:15;;;;;;;40.50;4.70;;;5.20;99.90;;;;;;5055880;28;20052;-69
2024/01/25 05:41:41;;;;;;;22.00;4.88;;;5.10;99.90;;;;;;5063821;28;20079;-69
2024/01/25 05:44:06;;;;;;;25.73;5.37;;;5.10;99.90;;;;;;5052988;28;20538;-69
2024/01/25 05:46:32;;;;;;;34.70;4.77;;;5.10;99.90;;;;;;5063203;28;20481;-69
2024/01/25 05:48:57;;;;;;;25.97;4.00;;;5.00;99.90;;;;;;5054827;28;20055;-70
2024/01/25 05:51:23;;;;;;;19.87;4.17;;;5.00;99.90;;;;;;5057990;28;20043;-73
2024/01/25 05:53:49;;;;;;;21.43;4.60;;;5.00;99.90;;;;;;5062584;28;20033;-70
2024/01/25 05:56:17;;;;;;;25.40;4.33;;;4.90;99.90;;;;;;5057190;28;20338;-69
2024/01/25 05:58:43;;;;;;;24.83;5.15;;;5.00;99.90;;;;;;5061729;28;20032;-72
2024/01/25 06:01:09;;;;;;;22.27;3.83;;;4.90;99.90;;;;;;5058808;28;20071;-71
2024/01/25 06:03:35;;;;;;;;;;;4.90;99.90;;;;;;5057142;28;20059;-71
2024/01/25 06:06:01;;;;;;;17.67;3.10;;;4.80;99.90;;;;;;5037602;28;19920;-74
2024/01/25 06:08:26;;;;;;;18.73;3.40;;;4.80;99.90;;;;;;5060611;28;20059;-73
2024/01/25 06:10:52;;;;;;;24.20;3.80;;;4.80;99.90;;;;;;5038524;28;20052;-74
2024/01/25 06:13:18;;;;;;;20.73;3.90;;;4.70;99.90;;;;;;5064405;28;20116;-75
2024/01/25 06:15:44;;;;;;;30.50;3.87;;;4.70;99.90;;;;;;5054296;28;20044;-70
2024/01/25 06:18:09;;;;;;;26.13;4.50;;;4.70;99.90;;;;;;5059433;28;20182;-70
2024/01/25 06:20:35;;;;;;;33.87;3.60;;;4.70;99.90;;;;;;5060155;28;20053;-70
2024/01/25 06:23:00;;;;;;;23.20;4.73;;;4.60;99.90;;;;;;5055057;28;20048;-70
2024/01/25 06:25:30;;;;;;;29.73;4.37;;;4.60;99.90;;;;;;5053162;28;20043;-70
2024/01/25 06:27:59;;;;;;;25.88;4.45;;;4.60;99.90;;;;;;5059250;28;20048;-69
2024/01/25 06:30:25;;;;;;;26.38;4.10;;;4.60;99.90;;;;;;5052955;28;20164;-69
2024/01/25 06:32:50;;;;;;;30.67;5.50;;;4.50;99.90;;;;;;5064975;28;20119;-69
2024/01/25 06:35:16;;;;;;;25.80;3.50;;;4.50;99.90;;;;;;5060211;28;20041;-69
2024/01/25 06:37:42;;;;;;;32.93;3.67;;;4.50;99.90;;;;;;5058196;28;20115;-70
2024/01/25 06:40:08;;;;;;;25.57;4.63;;;4.50;99.90;;;;;;5058877;28;20037;-70
2024/01/25 06:42:34;;;;;;;24.27;3.88;;;4.50;99.90;;;;;;5065248;28;20462;-77
2024/01/25 06:44:59;;;;;;;15.37;2.80;;;4.40;99.90;;;;;;5043884;28;20105;-69
2024/01/25 06:47:25;;;;;;;24.83;4.03;;;4.40;99.90;;;;;;5060963;28;20090;-70
2024/01/25 06:49:51;;;;;;;33.63;4.13;;;4.40;99.90;;;;;;5058270;28;20040;-76
2024/01/25 06:52:20;;;;;;;29.27;4.20;;;4.40;99.90;;;;;;5063628;28;20056;-73
2024/01/25 06:54:46;;;;;;;29.30;4.88;;;4.40;99.90;;;;;;5058823;28;20116;-70
2024/01/25 06:57:14;;;;;;;26.37;3.77;;;4.40;99.90;;;;;;5060456;28;20424;-70
2024/01/25 06:59:43;;;;;;;29.80;4.72;;;4.40;99.90;;;;;;5063178;28;20550;-70
2024/01/25 07:02:09;;;;;;;14.07;3.17;;;4.40;99.90;;;;;;5054145;28;20052;-70
2024/01/25 07:04:34;;;;;;;22.70;2.93;;;4.30;99.90;;;;;;5052544;28;20044;-69
2024/01/25 07:07:00;;;;;;;21.50;3.30;;;4.30;99.90;;;;;;5020708;28;1108757;-69
2024/01/25 07:09:26;;;;;;;14.83;3.57;;;4.30;99.90;;;;;;5050384;28;20125;-69
2024/01/25 07:11:52;;;;;;;28.13;5.00;;;4.20;99.90;;;;;;5061175;28;20131;-69
2024/01/25 07:14:22;;;;;;;13.38;3.10;;;4.30;99.90;;;;;;5053679;28;20280;-69
2024/01/25 07:16:48;;;;;;;27.08;3.45;;;4.30;99.90;;;;;;5063342;28;20028;-69
2024/01/25 07:19:14;;;;;;;17.17;3.70;;;4.30;99.90;;;;;;5052464;28;20412;-70
2024/01/25 07:21:40;;;;;;;21.50;3.70;;;4.30;99.90;;;;;;5038884;28;20048;-70
2024/01/25 07:24:09;;;;;;;23.33;5.10;;;4.30;99.90;;;;;;5058729;28;20131;-70
2024/01/25 07:26:36;;;;;;;25.83;3.67;;;4.30;99.90;;;;;;5055713;28;20056;-69
2024/01/25 07:29:02;;;;;;;32.08;4.85;;;4.40;99.90;;;;;;5034747;28;20048;-70
2024/01/25 07:31:28;;;;;;;18.57;3.57;;;4.40;99.90;;;;;;5056382;28;20037;-70
2024/01/25 07:33:55;;;;;;;30.47;4.67;;;4.40;99.90;;;;;;5044245;28;20610;-70
2024/01/25 07:36:20;;;;;;;28.10;4.40;;;4.40;99.90;;;;;;5053635;28;20320;-70
2024/01/25 07:38:49;;;;;;;21.87;3.83;;;4.40;99.90;;;;;;5051557;28;20068;-69
2024/01/25 07:41:18;;;;;;;22.77;3.70;;;4.40;99.90;;;;;;5059047;28;20164;-69
2024/01/25 07:43:43;;;;;;;23.20;4.10;;;4.40;99.90;;;;;;5047547;28;20041;-69
2024/01/25 07:46:10;;;;;;;25.80;4.63;;;4.50;99.90;;;;;;5057884;28;20535;-69
2024/01/25 07:48:36;;;;;;;;;;;4.50;99.90;;;;;;5053119;28;20041;-69
2024/01/25 07:51:01;;;;;;;17.65;3.75;;;4.50;99.90;;;;;;5052997;28;19920;-70
2024/01/25 07:53:27;;;;;;;19.43;3.23;;;4.50;99.90;;;;;;5054667;28;20025;-70
2024/01/25 07:55:53;;;;;;;26.10;4.23;;;4.60;99.90;;;;;;5057943;28;20036;-69
2024/01/25 07:58:21;;;;;;;24.87;3.13;;;4.60;99.90;;;;;;5045774;28;20867;-69
2024/01/25 08:00:46;;;;;;;27.63;4.25;;;4.70;99.90;;;;;;5039296;28;20041;-69
2024/01/25 08:03:12;;;;;;;20.67;4.13;;;4.60;99.90;;;;;;5053043;28;20032;-69
2024/01/25 08:05:38;;;;;;;28.77;3.77;;;4.60;99.90;;;;;;5057653;28;20044;-69
2024/01/25 08:08:03;;;;;;;34.17;4.57;;;4.60;99.90;;;;;;5055662;28;20040;-69
2024/01/25 08:10:29;;;;;;;25.23;3.87;;;4.60;99.90;;;;;;5058106;28;20040;-70
2024/01/25 08:12:55;;;;;;;24.70;4.37;;;4.60;99.90;;;;;;5053188;28;20037;-70
2024/01/25 08:15:20;;;;;;;18.07;3.33;;;4.70;99.90;;;;;;5049741;28;20067;-69
2024/01/25 08:17:46;;;;;;;24.53;4.00;;;4.70;99.90;;;;;;5056039;28;20103;-69
2024/01/25 08:20:15;;;;;;;27.23;4.00;;;4.70;99.90;;;;;;5029401;28;20508;-69
2024/01/25 08:22:41;;;;;;;19.88;3.92;;;4.70;99.90;;;;;;5052808;28;20036;-69
2024/01/25 08:25:07;;;;;;;16.02;3.58;;;4.70;99.90;;;;;;5048076;28;20103;-69
2024/01/25 08:27:33;;;;;;;16.75;3.28;;;4.70;99.90;;;;;;5037121;28;20047;-69
2024/01/25 08:29:59;;;;;;;25.95;4.53;;;4.70;99.90;;;;;;5057834;28;20424;-69
2024/01/25 08:32:25;;;;;;;29.13;4.80;;;4.80;99.90;;;;;;5052556;28;20047;-69
2024/01/25 08:34:50;;;;;;;22.10;3.63;;;4.80;99.90;;;;;;5056802;28;20409;-69
2024/01/25 08:37:16;;;;;;;21.03;3.97;;;4.80;99.90;;;;;;5060965;28;20079;-70
2024/01/25 08:39:43;;;;;;;20.80;4.47;;;4.80;99.90;;;;;;5058060;28;20055;-69
2024/01/25 08:42:09;;;;;;;24.58;4.20;;;4.80;99.90;;;;;;5037470;28;20072;-69
2024/01/25 08:44:34;;;;;;;25.30;4.70;;;4.80;99.90;;;;;;5057145;28;20068;-70
2024/01/25 08:47:00;;;;;;;25.10;4.30;;;4.80;99.90;;;;;;5050086;28;20036;-69
2024/01/25 08:49:26;;;;;;;20.17;4.20;;;4.80;99.90;;;;;;5049354;28;20028;-70
2024/01/25 08:51:51;;;;;;;17.43;4.70;;;4.80;99.90;;;;;;5054669;28;20095;-70
2024/01/25 08:54:17;;;;;;;23.53;5.67;;;4.90;99.90;;;;;;5058002;28;20040;-69
2024/01/25 08:56:42;;;;;;;32.67;5.03;;;4.90;99.90;;;;;;5057532;28;20033;-69
2024/01/25 08:59:08;;;;;;;18.03;4.20;;;4.90;99.90;;;;;;5052748;28;20123;-69
2024/01/25 09:01:34;;;;;;;16.67;3.97;;;4.90;99.90;;;;;;5057092;28;20078;-70
2024/01/25 09:04:02;;;;;;;24.60;4.90;;;4.90;99.90;;;;;;5049285;28;20044;-69
2024/01/25 09:06:29;;;;;;;19.60;5.20;;;5.00;99.90;;;;;;5056597;28;20047;-69
2024/01/25 09:08:55;;;;;;;26.13;3.95;;;5.00;99.90;;;;;;5058469;28;20063;-69
2024/01/25 09:11:21;;;;;;;24.70;4.35;;;5.00;99.90;;;;;;5018338;28;20044;-69
2024/01/25 09:13:47;;;;;;;21.43;4.00;;;5.10;99.90;;;;;;5062297;28;20044;-69
2024/01/25 09:16:13;;;;;;;26.00;4.35;;;5.10;99.90;;;;;;5055196;28;20041;-70
2024/01/25 09:18:39;;;;;;;34.30;4.97;;;5.20;99.90;;;;;;5058622;28;20040;-70
2024/01/25 09:21:05;;;;;;;20.47;3.17;;;5.20;99.90;;;;;;5060687;28;20048;-69
2024/01/25 09:23:30;;;;;;;33.93;5.10;;;5.30;99.90;;;;;;5058324;28;20408;-69
2024/01/25 09:25:56;;;;;;;18.93;4.63;;;5.30;99.90;;;;;;5054994;28;20058;-69
2024/01/25 09:28:21;;;;;;;25.97;4.47;;;5.30;99.90;;;;;;5058538;28;20039;-69
2024/01/25 09:30:47;;;;;;;30.20;4.93;;;5.40;99.90;;;;;;5057568;28;20136;-70
2024/01/25 09:33:14;;;;;;;22.87;5.07;;;5.40;99.90;;;;;;5041339;28;20389;-71
2024/01/25 09:35:39;;;;;;;;;;;5.40;99.90;;;;;;5056634;28;20498;-70
2024/01/25 09:38:05;;;;;;;27.00;5.45;;;5.50;99.90;;;;;;5056223;28;20423;-70
2024/01/25 09:40:33;;;;;;;27.15;3.88;;;5.40;99.90;;;;;;5055214;28;20570;-70
2024/01/25 09:42:59;;;;;;;19.83;4.18;;;5.50;99.90;;;;;;5040354;28;20462;-70
2024/01/25 09:45:25;;;;;;;23.98;4.10;;;5.50;99.90;;;;;;5052841;28;20040;-71
2024/01/25 09:47:50;;;;;;;21.00;3.50;;;5.50;99.90;;;;;;5054736;28;20119;-72
2024/01/25 09:50:16;;;;;;;32.83;5.40;;;5.60;99.90;;;;;;5057396;28;20412;-70
2024/01/25 09:52:44;;;;;;;27.00;4.57;;;5.60;99.90;;;;;;5055212;28;20110;-68
2024/01/25 09:55:17;;;;;;;23.98;4.80;;;5.70;99.90;;;;;;5046365;28;20048;-69
2024/01/25 09:57:48;;;;;;;28.25;5.18;;;5.60;99.90;;;;;;5048766;28;20041;-69
2024/01/25 10:00:15;;;;;;;35.75;4.07;;;5.70;99.90;;;;;;5054516;28;20090;-69
2024/01/25 10:02:41;;;;;;;;;;;5.70;99.90;;;;;;5054604;28;20562;-69
2024/01/25 10:05:07;;;;;;;24.67;4.38;;;5.70;99.90;;;;;;5049829;28;19921;-69
2024/01/25 10:07:37;;;;;;;32.00;4.65;;;5.80;99.90;;;;;;5056529;28;20039;-69
2024/01/25 10:10:05;;;;;;;24.58;3.50;;;5.80;99.90;;;;;;5057619;28;20427;-69
2024/01/25 10:12:31;;;;;;;32.60;4.78;;;5.90;99.90;;;;;;5051455;28;20557;-69
2024/01/25 10:14:57;;;;;;;32.00;4.85;;;5.90;99.90;;;;;;5056614;28;20135;-69
2024/01/25 10:17:22;;;;;;;21.00;4.07;;;6.00;99.90;;;;;;5055738;28;20239;-70
2024/01/25 10:19:48;;;;;;;19.90;5.60;;;6.10;99.90;;;;;;5053872;28;20177;-68
2024/01/25 10:22:14;;;;;;;21.93;5.00;;;6.10;99.90;;;;;;5063427;28;20040;-69
2024/01/25 10:24:40;;;;;;;21.02;4.53;;;6.20;99.90;;;;;;5052481;28;20110;-69
2024/01/25 10:27:07;;;;;;;24.33;4.82;;;6.30;99.90;;;;;;5051941;28;20110;-68
2024/01/25 10:29:36;;;;;;;23.67;5.60;;;6.50;99.90;;;;;;5044200;28;20036;-69
2024/01/25 10:32:07;;;;;;;23.95;4.38;;;6.60;99.90;;;;;;5059350;28;20399;-68
2024/01/25 10:34:36;;;;;;;21.50;4.18;;;6.60;99.90;;;;;;5056509;28;20397;-69
2024/01/25 10:37:05;;;;;;;27.05;4.57;;;6.70;99.90;;;;;;5055953;28;20041;-68
2024/01/25 10:39:32;;;;;;;24.80;5.30;;;6.80;99.90;;;;;;5055313;28;20447;-68
2024/01/25 10:41:58;;;;;;;;;;;7.00;99.90;;;;;;5061836;28;20048;-68
2024/01/25 10:44:24;;;;;;;30.35;5.10;;;7.10;99.90;;;;;;5050281;28;20399;-68
2024/01/25 10:46:49;;;;;;;19.93;3.67;;;7.10;99.90;;;;;;5058491;28;20323;-69
2024/01/25 10:49:17;;;;;;;20.98;5.68;;;7.20;99.90;;;;;;5048828;28;20045;-69
2024/01/25 10:51:44;;;;;;;28.95;5.45;;;7.30;99.90;;;;;;5057928;28;20447;-68
2024/01/25 10:54:11;;;;;;;;;;;7.40;99.90;;;;;;5055494;28;20061;-68
2024/01/25 10:56:37;;;;;;;27.83;4.75;;;7.50;99.90;;;;;;5063518;28;19920;-68
2024/01/25 10:59:03;;;;;;;;;;;7.50;99.90;;;;;;5055377;28;21111;-69
2024/01/25 11:01:29;;;;;;;26.52;6.28;;;7.60;99.90;;;;;;5058791;28;19920;-68
2024/01/25 11:03:55;;;;;;;21.67;4.53;;;7.60;99.90;;;;;;5061158;28;20497;-69
2024/01/25 11:06:22;;;;;;;21.63;5.25;;;7.80;99.90;;;;;;5051143;28;20474;-68
2024/01/25 11:08:48;;;;;;;15.43;4.65;;;7.90;99.90;;;;;;5058513;28;20406;-69
2024/01/25 11:11:15;;;;;;;32.10;5.03;;;8.00;99.90;;;;;;5040509;28;20455;-68
2024/01/25 11:13:42;;;;;;;30.20;5.57;;;8.10;99.90;;;;;;5050774;28;20120;-69
2024/01/25 11:16:14;;;;;;;23.63;4.70;;;8.30;99.90;;;;;;5057021;28;20404;-69
2024/01/25 11:18:54;;;;;;;20.10;4.88;;;8.30;99.90;;;;;;5063097;28;20107;-68
2024/01/25 11:21:29;;;;;;;17.02;5.13;;;8.30;99.90;;;;;;5051743;28;20049;-69
2024/01/25 11:24:04;;;;;;;23.67;4.53;;;8.30;99.90;;;;;;5053603;28;20101;-68
2024/01/25 11:26:33;;;;;;;25.00;4.85;;;8.30;99.90;;;;;;5053241;28;20072;-68
2024/01/25 11:29:02;;;;;;;22.27;5.00;;;8.30;99.90;;;;;;5061315;28;20080;-69
2024/01/25 11:31:28;;;;;;;22.52;4.93;;;8.40;99.90;;;;;;5059586;28;20041;-68
2024/01/25 11:34:00;;;;;;;27.92;4.78;;;8.40;99.90;;;;;;5040312;28;20041;-68
2024/01/25 11:36:27;;;;;;;28.63;3.65;;;8.30;99.90;;;;;;5055373;28;20037;-68
2024/01/25 11:38:53;;;;;;;19.48;4.55;;;8.30;99.90;;;;;;5060309;28;20044;-68
2024/01/25 11:41:19;;;;;;;20.58;4.80;;;8.30;99.90;;;;;;5059260;28;20051;-68
2024/01/25 11:43:47;;;;;;;25.73;5.45;;;8.30;99.90;;;;;;5038020;28;20037;-69
2024/01/25 11:46:13;;;;;;;27.75;4.60;;;8.20;99.90;;;;;;5062584;28;20105;-68
2024/01/25 11:48:41;;;;;;;22.65;4.85;;;8.20;99.90;;;;;;5050366;28;20501;-68
2024/01/25 11:51:09;;;;;;;28.40;4.63;;;8.10;99.90;;;;;;5036009;28;20047;-68
2024/01/25 11:53:34;;;;;;;20.33;4.43;;;8.10;99.90;;;;;;5056353;28;20112;-68
2024/01/25 11:56:00;;;;;;;18.93;4.30;;;8.00;99.90;;;;;;5033443;28;20580;-68
2024/01/25 11:58:26;;;;;;;18.05;4.65;;;8.00;99.90;;;;;;5059507;28;20086;-68
2024/01/25 12:00:52;;;;;;;18.83;3.57;;;8.00;99.90;;;;;;5056410;28;20425;-69
2024/01/25 12:03:18;;;;;;;25.10;4.82;;;8.10;99.90;;;;;;5055681;28;20277;-69
2024/01/25 12:05:44;;;;;;;23.00;4.25;;;8.00;99.90;;;;;;5058245;28;20097;-68
2024/01/25 12:08:13;;;;;;;25.83;4.87;;;8.10;99.90;;;;;;5054781;28;20036;-68
2024/01/25 12:10:39;;;;;;;22.27;4.93;;;8.10;99.90;;;;;;5061021;28;20237;-68
2024/01/25 12:13:08;;;;;;;20.37;4.90;;;8.10;99.90;;;;;;5058962;28;20037;-69
2024/01/25 12:15:35;;;;;;;21.90;4.25;;;8.30;99.90;;;;;;5055221;28;20033;-69
2024/01/25 12:18:01;;;;;;;27.73;4.78;;;8.30;99.90;;;;;;5055829;28;20040;-68
2024/01/25 12:20:28;;;;;;;24.98;3.88;;;8.40;99.90;;;;;;5057430;28;20067;-69
2024/01/25 12:22:53;;;;;;;;;;;8.40;99.90;;;;;;5063374;28;20106;-69
2024/01/25 12:25:19;;;;;;;28.58;4.82;;;8.50;99.90;;;;;;5053020;28;19954;-69
2024/01/25 12:27:48;;;;;;;23.33;4.73;;;8.50;99.90;;;;;;5060988;28;20033;-69
2024/01/25 12:30:14;;;;;;;23.17;4.22;;;8.40;99.90;;;;;;5059967;28;20508;-69
2024/01/25 12:32:40;;;;;;;20.80;4.73;;;8.30;99.90;;;;;;5059629;28;20029;-69
2024/01/25 12:35:07;;;;;;;25.60;4.72;;;8.40;99.90;;;;;;5056513;28;20399;-69
2024/01/25 12:37:33;;;;;;;26.63;5.00;;;8.30;99.90;;;;;;5053051;28;20044;-69
2024/01/25 12:39:59;;;;;;;20.03;4.70;;;8.30;99.90;;;;;;5053715;28;20053;-69
2024/01/25 12:42:24;;;;;;;28.90;5.47;;;8.30;99.90;;;;;;5056925;28;20047;-70
2024/01/25 12:44:54;;;;;;;22.20;5.03;;;8.30;99.90;;;;;;5037402;28;20402;-69